Time;durP1;ratioP1;P1;durP2;ratioP2;P2;SDS_P1;SDS_P2;PMS_P1;PMS_P2;Temp;Humidity;BMP_temperature;BMP_pressure;BME280_temperature;BME280_humidity;BME280_pressure;Samples;Min_cycle;Max_cycle;Signal;HPM_P1;HPM_P2
2020/12/18 00:01:19;;;;;;;21.63;8.80;;;;;;;;;;4346494;33;20490;-84
2020/12/18 00:03:46;;;;;;;14.17;7.53;;;;;;;;;;4345165;33;20314;-84
2020/12/18 00:06:11;;;;;;;14.87;8.97;;;;;;;;;;4344920;33;20226;-84
2020/12/18 00:08:41;;;;;;;20.00;9.00;;;;;;;;;;4344954;33;20179;-84
2020/12/18 00:11:12;;;;;;;18.13;8.63;;;;;;;;;;4332538;33;20270;-84
2020/12/18 00:13:37;;;;;;;23.63;10.53;;;;;;;;;;4345577;33;20448;-84
2020/12/18 00:16:05;;;;;;;19.37;10.23;;;;;;;;;;4345318;33;20244;-84
2020/12/18 00:18:33;;;;;;;18.43;10.17;;;;;;;;;;4345535;33;20687;-84
2020/12/18 00:21:03;;;;;;;17.30;10.03;;;;;;;;;;4344946;33;20202;-83
2020/12/18 00:23:34;;;;;;;17.93;10.57;;;;;;;;;;4332622;33;20651;-84
2020/12/18 00:26:05;;;;;;;23.13;10.60;;;;;;;;;;4344979;33;20172;-85
2020/12/18 00:28:37;;;;;;;20.57;10.63;;;;;;;;;;4345521;33;20163;-85
2020/12/18 00:31:08;;;;;;;21.00;11.33;;;;;;;;;;4344764;33;20201;-84
2020/12/18 00:33:34;;;;;;;18.67;10.23;;;;;;;;;;4344625;33;20218;-84
2020/12/18 00:36:02;;;;;;;19.60;10.70;;;;;;;;;;4344573;33;20175;-85
2020/12/18 00:38:33;;;;;;;20.07;11.57;;;;;;;;;;4344831;33;20589;-84
2020/12/18 00:41:03;;;;;;;26.93;12.23;;;;;;;;;;4332224;33;20253;-84
2020/12/18 00:43:29;;;;;;;19.67;10.90;;;;;;;;;;4345515;33;20152;-85
2020/12/18 00:46:04;;;;;;;26.03;12.03;;;;;;;;;;4333007;33;20492;-85
2020/12/18 00:48:29;;;;;;;20.90;11.30;;;;;;;;;;4332259;33;20261;-83
2020/12/18 00:51:03;;;;;;;21.93;12.40;;;;;;;;;;4344807;33;20175;-84
2020/12/18 00:53:29;;;;;;;26.03;12.80;;;;;;;;;;4333091;33;20202;-84
2020/12/18 00:55:57;;;;;;;23.20;11.33;;;;;;;;;;4346125;33;20232;-84
2020/12/18 00:58:31;;;;;;;21.20;12.37;;;;;;;;;;4344456;33;20167;-85
2020/12/18 01:01:04;;;;;;;21.10;12.60;;;;;;;;;;4344540;33;20164;-84
2020/12/18 01:03:31;;;;;;;22.00;11.93;;;;;;;;;;4344352;33;20195;-84
2020/12/18 01:06:00;;;;;;;22.80;12.63;;;;;;;;;;4344268;33;20193;-85
2020/12/18 01:08:25;;;;;;;24.83;13.13;;;;;;;;;;4344402;33;20185;-84
2020/12/18 01:10:51;;;;;;;23.47;13.43;;;;;;;;;;4344000;33;20171;-84
2020/12/18 01:13:28;;;;;;;25.30;13.50;;;;;;;;;;4344080;33;20674;-84
2020/12/18 01:15:57;;;;;;;25.63;13.93;;;;;;;;;;4344481;33;20171;-84
2020/12/18 01:18:25;;;;;;;27.80;13.63;;;;;;;;;;4331922;33;20163;-84
2020/12/18 01:20:51;;;;;;;25.60;13.60;;;;;;;;;;4344053;33;20159;-85
2020/12/18 01:23:22;;;;;;;29.20;13.37;;;;;;;;;;4344115;33;20171;-84
2020/12/18 01:25:47;;;;;;;25.17;13.20;;;;;;;;;;4344396;33;20241;-85
2020/12/18 01:28:13;;;;;;;29.47;13.93;;;;;;;;;;4332062;33;20609;-84
2020/12/18 01:30:38;;;;;;;26.17;13.60;;;;;;;;;;4353090;33;20210;-85
2020/12/18 01:33:04;;;;;;;25.17;13.83;;;;;;;;;;4346777;33;20652;-84
2020/12/18 01:35:29;;;;;;;26.07;13.50;;;;;;;;;;4346390;33;20505;-84
2020/12/18 01:37:55;;;;;;;29.63;14.00;;;;;;;;;;4359986;33;20165;-84
2020/12/18 01:40:23;;;;;;;33.37;15.70;;;;;;;;;;4346216;33;20167;-84
2020/12/18 01:42:51;;;;;;;23.83;14.30;;;;;;;;;;4346324;33;20662;-84
2020/12/18 01:45:16;;;;;;;26.60;13.50;;;;;;;;;;4346324;33;20159;-84
2020/12/18 01:47:42;;;;;;;29.37;13.83;;;;;;;;;;4346401;33;20238;-84
2020/12/18 01:50:16;;;;;;;29.30;14.73;;;;;;;;;;4346308;33;20340;-85
2020/12/18 01:52:41;;;;;;;36.33;15.60;;;;;;;;;;4346593;33;20205;-84
2020/12/18 01:55:07;;;;;;;34.00;15.03;;;;;;;;;;4346552;33;20581;-84
2020/12/18 01:57:35;;;;;;;32.60;16.07;;;;;;;;;;4346258;33;20201;-84
2020/12/18 02:00:04;;;;;;;31.37;14.37;;;;;;;;;;4360208;33;20142;-84
2020/12/18 02:02:31;;;;;;;32.07;14.87;;;;;;;;;;4348605;33;20217;-85
2020/12/18 02:04:56;;;;;;;28.47;14.87;;;;;;;;;;4349514;32;20224;-84
2020/12/18 02:07:23;;;;;;;34.97;16.57;;;;;;;;;;4349205;33;20167;-84
2020/12/18 02:09:49;;;;;;;31.07;15.37;;;;;;;;;;4352917;33;20297;-84
2020/12/18 02:12:16;;;;;;;38.20;16.47;;;;;;;;;;4353255;33;20188;-84
2020/12/18 02:14:48;;;;;;;31.07;15.50;;;;;;;;;;4350004;33;20186;-85
2020/12/18 02:17:19;;;;;;;30.77;15.40;;;;;;;;;;4350449;33;20158;-84
2020/12/18 02:19:50;;;;;;;37.17;16.17;;;;;;;;;;4349204;33;20548;-84
2020/12/18 02:22:16;;;;;;;33.13;15.07;;;;;;;;;;4349284;33;20601;-84
2020/12/18 02:24:49;;;;;;;42.80;17.53;;;;;;;;;;4348802;33;20166;-84
2020/12/18 02:27:14;;;;;;;38.17;15.73;;;;;;;;;;4349272;33;20193;-84
2020/12/18 02:29:39;;;;;;;34.70;15.73;;;;;;;;;;4348887;33;20159;-84
2020/12/18 02:32:05;;;;;;;32.00;16.27;;;;;;;;;;4348764;33;20175;-85
2020/12/18 02:34:34;;;;;;;41.60;16.33;;;;;;;;;;4348968;33;20197;-84
2020/12/18 02:37:00;;;;;;;34.77;16.33;;;;;;;;;;4348599;33;20522;-84
2020/12/18 02:39:27;;;;;;;29.13;15.73;;;;;;;;;;4348643;33;20166;-84
2020/12/18 02:41:53;;;;;;;35.50;17.20;;;;;;;;;;4349302;33;20615;-84
2020/12/18 02:44:27;;;;;;;30.83;15.90;;;;;;;;;;4348795;33;20214;-84
2020/12/18 02:46:52;;;;;;;37.20;17.07;;;;;;;;;;4348724;33;20163;-84
2020/12/18 02:49:20;;;;;;;34.50;17.20;;;;;;;;;;4348525;33;20202;-84
2020/12/18 02:52:00;;;;;;;32.93;16.57;;;;;;;;;;4362420;32;20147;-84
2020/12/18 02:54:28;;;;;;;37.43;16.13;;;;;;;;;;4349930;33;20163;-83
2020/12/18 02:56:56;;;;;;;36.67;16.60;;;;;;;;;;4349427;33;20175;-84
2020/12/18 02:59:21;;;;;;;38.67;16.97;;;;;;;;;;4362480;32;20154;-84
2020/12/18 03:01:49;;;;;;;35.93;16.87;;;;;;;;;;4348756;33;20225;-85
2020/12/18 03:04:20;;;;;;;36.57;16.43;;;;;;;;;;4348307;33;20171;-84
2020/12/18 03:06:48;;;;;;;39.60;17.33;;;;;;;;;;4362517;32;20237;-84
2020/12/18 03:09:13;;;;;;;36.50;16.90;;;;;;;;;;4348371;32;20218;-84
2020/12/18 03:11:43;;;;;;;36.97;17.53;;;;;;;;;;4348236;33;20262;-84
2020/12/18 03:14:09;;;;;;;35.33;17.07;;;;;;;;;;4347548;33;20220;-84
2020/12/18 03:16:38;;;;;;;36.23;15.83;;;;;;;;;;4348077;33;20174;-84
2020/12/18 03:19:14;;;;;;;38.50;17.23;;;;;;;;;;4348183;33;20193;-84
2020/12/18 03:21:39;;;;;;;37.97;15.07;;;;;;;;;;4348651;33;20200;-84
2020/12/18 03:24:04;;;;;;;35.47;15.63;;;;;;;;;;4348531;33;20172;-84
2020/12/18 03:26:32;;;;;;;37.77;15.83;;;;;;;;;;4347907;33;20232;-84
2020/12/18 03:29:00;;;;;;;37.57;16.37;;;;;;;;;;4347889;33;20212;-84
2020/12/18 03:31:30;;;;;;;39.97;16.77;;;;;;;;;;4347802;33;20167;-84
2020/12/18 03:33:55;;;;;;;35.50;16.40;;;;;;;;;;4348439;33;20185;-84
2020/12/18 03:36:24;;;;;;;39.97;16.40;;;;;;;;;;4347836;33;20194;-85
2020/12/18 03:38:57;;;;;;;39.53;17.10;;;;;;;;;;4347750;33;20218;-84
2020/12/18 03:41:25;;;;;;;42.77;15.87;;;;;;;;;;4348246;33;20210;-84
2020/12/18 03:43:53;;;;;;;41.30;16.23;;;;;;;;;;4362991;32;20213;-84
2020/12/18 03:46:18;;;;;;;43.77;16.43;;;;;;;;;;4348724;33;20532;-84
2020/12/18 03:48:44;;;;;;;36.73;15.53;;;;;;;;;;4347648;33;20691;-84
2020/12/18 03:51:17;;;;;;;41.87;16.00;;;;;;;;;;4347773;33;20601;-83
2020/12/18 03:53:43;;;;;;;36.73;14.77;;;;;;;;;;4349534;33;20160;-83
2020/12/18 03:56:08;;;;;;;41.57;15.63;;;;;;;;;;4348193;33;20226;-84
2020/12/18 03:58:33;;;;;;;36.60;15.10;;;;;;;;;;4347496;33;20193;-84
2020/12/18 04:01:04;;;;;;;34.87;14.80;;;;;;;;;;4347725;33;20501;-84
2020/12/18 04:03:29;;;;;;;42.80;16.20;;;;;;;;;;4361598;32;20136;-84
2020/12/18 04:05:55;;;;;;;35.37;14.90;;;;;;;;;;4347517;33;20193;-84
2020/12/18 04:08:26;;;;;;;36.97;14.57;;;;;;;;;;4347166;33;20500;-84
2020/12/18 04:10:54;;;;;;;40.83;14.17;;;;;;;;;;4361201;32;20147;-85
2020/12/18 04:13:19;;;;;;;31.07;14.40;;;;;;;;;;4350283;33;20170;-85
2020/12/18 04:15:45;;;;;;;32.57;14.70;;;;;;;;;;4353383;33;20189;-84
2020/12/18 04:18:10;;;;;;;32.63;14.30;;;;;;;;;;4366661;32;20210;-84
2020/12/18 04:20:40;;;;;;;38.40;14.97;;;;;;;;;;4352702;33;20175;-84
2020/12/18 04:23:10;;;;;;;38.10;14.77;;;;;;;;;;4351892;33;20213;-86
2020/12/18 04:25:35;;;;;;;33.77;14.40;;;;;;;;;;4346781;33;20159;-83
2020/12/18 04:28:00;;;;;;;37.53;14.13;;;;;;;;;;4347025;33;20170;-84
2020/12/18 04:30:26;;;;;;;36.23;14.33;;;;;;;;;;4346918;33;20576;-85
2020/12/18 04:32:51;;;;;;;35.70;14.23;;;;;;;;;;4346977;33;20589;-84
2020/12/18 04:35:17;;;;;;;36.50;13.37;;;;;;;;;;4346205;33;20232;-84
2020/12/18 04:37:43;;;;;;;35.73;14.30;;;;;;;;;;4347017;33;20159;-84
2020/12/18 04:40:08;;;;;;;33.07;14.33;;;;;;;;;;4346847;33;20221;-84
2020/12/18 04:42:39;;;;;;;35.87;14.57;;;;;;;;;;4347094;33;20576;-84
2020/12/18 04:45:05;;;;;;;33.97;12.97;;;;;;;;;;4347383;33;20207;-84
2020/12/18 04:47:36;;;;;;;33.37;13.07;;;;;;;;;;4346810;33;20159;-83
2020/12/18 04:50:02;;;;;;;33.57;12.73;;;;;;;;;;4347614;33;20218;-85
2020/12/18 04:52:28;;;;;;;32.23;12.57;;;;;;;;;;4346869;33;20162;-84
2020/12/18 04:55:00;;;;;;;37.83;13.60;;;;;;;;;;4346704;33;20193;-86
2020/12/18 04:57:29;;;;;;;30.53;12.53;;;;;;;;;;4347000;33;20155;-84
2020/12/18 04:59:57;;;;;;;29.33;11.77;;;;;;;;;;4347137;33;20167;-84
2020/12/18 05:02:23;;;;;;;33.90;12.73;;;;;;;;;;4347181;33;20186;-84
2020/12/18 05:04:48;;;;;;;33.73;12.40;;;;;;;;;;4347077;33;20635;-84
2020/12/18 05:07:16;;;;;;;30.13;12.00;;;;;;;;;;4346601;33;20706;-84
2020/12/18 05:09:44;;;;;;;28.80;11.63;;;;;;;;;;4346886;33;20233;-84
2020/12/18 05:12:09;;;;;;;30.43;12.10;;;;;;;;;;4346297;33;20673;-85
2020/12/18 05:14:35;;;;;;;29.50;12.43;;;;;;;;;;4360074;32;20135;-84
2020/12/18 05:17:07;;;;;;;27.57;11.23;;;;;;;;;;4359907;33;20523;-84
2020/12/18 05:19:40;;;;;;;26.50;12.13;;;;;;;;;;4346772;33;20193;-85
2020/12/18 05:22:06;;;;;;;26.93;11.67;;;;;;;;;;4346568;33;20243;-84
2020/12/18 05:24:32;;;;;;;30.47;12.43;;;;;;;;;;4346562;33;20525;-84
2020/12/18 05:27:00;;;;;;;28.67;11.60;;;;;;;;;;4346471;33;20158;-84
2020/12/18 05:29:26;;;;;;;25.37;11.07;;;;;;;;;;4346899;33;20561;-84
2020/12/18 05:31:53;;;;;;;24.77;10.43;;;;;;;;;;4346417;33;20189;-84
2020/12/18 05:34:19;;;;;;;24.33;11.53;;;;;;;;;;4346417;33;20225;-84
2020/12/18 05:36:48;;;;;;;25.43;11.07;;;;;;;;;;4347618;33;20517;-84
2020/12/18 05:39:22;;;;;;;22.10;11.83;;;;;;;;;;4349563;33;20201;-85
2020/12/18 05:41:55;;;;;;;26.73;10.70;;;;;;;;;;4349559;33;20159;-84
2020/12/18 05:44:26;;;;;;;20.47;10.67;;;;;;;;;;4349830;33;20492;-84
2020/12/18 05:46:52;;;;;;;27.50;10.77;;;;;;;;;;4363226;33;20206;-84
2020/12/18 05:49:26;;;;;;;18.77;9.97;;;;;;;;;;4349416;33;20221;-84
2020/12/18 05:51:52;;;;;;;27.33;10.13;;;;;;;;;;4349412;33;20189;-85
2020/12/18 05:54:20;;;;;;;24.03;10.60;;;;;;;;;;4349590;33;20166;-84
2020/12/18 05:56:50;;;;;;;27.70;9.50;;;;;;;;;;4349588;33;20197;-84
2020/12/18 05:59:25;;;;;;;32.80;10.43;;;;;;;;;;4354983;33;20163;-84
2020/12/18 06:02:01;;;;;;;21.43;9.90;;;;;;;;;;4353505;33;20162;-84
2020/12/18 06:04:32;;;;;;;18.37;9.30;;;;;;;;;;4352865;33;20177;-84
2020/12/18 06:06:57;;;;;;;22.13;9.90;;;;;;;;;;4351558;33;20182;-84
2020/12/18 06:09:26;;;;;;;23.33;9.83;;;;;;;;;;4349101;33;20209;-86
2020/12/18 06:11:51;;;;;;;31.23;9.70;;;;;;;;;;4349041;33;20179;-84
2020/12/18 06:14:19;;;;;;;21.53;9.10;;;;;;;;;;4362373;32;20190;-84
2020/12/18 06:16:45;;;;;;;21.03;8.87;;;;;;;;;;4347467;33;20167;-82
2020/12/18 06:19:11;;;;;;;19.23;9.23;;;;;;;;;;4348313;33;20194;-84
2020/12/18 06:21:36;;;;;;;22.67;9.07;;;;;;;;;;4348658;33;20186;-83
2020/12/18 06:24:06;;;;;;;23.90;9.53;;;;;;;;;;4348636;33;20205;-84
2020/12/18 06:26:34;;;;;;;24.27;9.57;;;;;;;;;;4349062;33;20481;-84
2020/12/18 06:29:03;;;;;;;22.17;8.73;;;;;;;;;;4362149;32;20151;-86
2020/12/18 06:31:36;;;;;;;22.87;9.50;;;;;;;;;;4349627;33;20206;-85
2020/12/18 06:34:02;;;;;;;27.87;10.10;;;;;;;;;;4349344;33;20584;-83
2020/12/18 06:36:43;;;;;;;20.43;9.77;;;;;;;;;;4348487;33;20171;-83
2020/12/18 06:39:21;;;;;;;25.67;10.50;;;;;;;;;;4349606;33;20198;-83
2020/12/18 06:41:47;;;;;;;26.60;10.77;;;;;;;;;;4362342;33;20147;-83
2020/12/18 06:44:31;;;;;;;27.10;11.37;;;;;;;;;;4348458;33;20560;-78
2020/12/18 06:47:09;;;;;;;24.47;12.50;;;;;;;;;;4348257;32;20170;-82
2020/12/18 06:49:57;;;;;;;27.10;13.73;;;;;;;;;;4348799;33;20221;-83
2020/12/18 06:53:04;;;;;;;34.90;16.03;;;;;;;;;;4348608;33;20182;-83
2020/12/18 06:55:30;;;;;;;34.97;16.87;;;;;;;;;;4362264;33;20485;-83
2020/12/18 06:58:11;;;;;;;36.27;18.60;;;;;;;;;;4348975;33;20181;-83
2020/12/18 07:00:44;;;;;;;39.33;18.70;;;;;;;;;;4348445;33;20159;-84
2020/12/18 07:03:10;;;;;;;37.73;19.90;;;;;;;;;;4348269;33;20233;-83
2020/12/18 07:05:39;;;;;;;38.10;18.77;;;;;;;;;;4348544;33;20584;-84
2020/12/18 07:08:11;;;;;;;37.97;19.17;;;;;;;;;;4348131;33;20197;-83
2020/12/18 07:10:49;;;;;;;37.90;18.47;;;;;;;;;;4361648;32;20136;-84
2020/12/18 07:13:16;;;;;;;34.00;17.97;;;;;;;;;;4342632;33;20162;-84
2020/12/18 07:15:49;;;;;;;33.75;18.15;;;;;;;;;;4345724;33;20250;-83
2020/12/18 07:18:28;;;;;;;34.40;17.83;;;;;;;;;;4342498;33;20190;-83
2020/12/18 07:20:54;;;;;;;35.20;17.70;;;;;;;;;;4349060;33;20163;-82
2020/12/18 07:23:23;;;;;;;32.63;17.63;;;;;;;;;;4348075;33;20214;-85
2020/12/18 07:25:49;;;;;;;32.60;17.70;;;;;;;;;;4361516;33;20143;-84
2020/12/18 07:28:25;;;;;;;34.83;18.00;;;;;;;;;;4347796;33;20218;-84
2020/12/18 07:30:55;;;;;;;31.58;17.35;;;;;;;;;;4348186;33;20158;-85
2020/12/18 07:33:26;;;;;;;31.97;17.00;;;;;;;;;;4348037;32;20544;-84
2020/12/18 07:35:53;;;;;;;38.27;17.57;;;;;;;;;;4348117;33;20178;-84
2020/12/18 07:38:29;;;;;;;34.70;17.50;;;;;;;;;;4347887;33;20205;-84
2020/12/18 07:40:55;;;;;;;31.83;18.00;;;;;;;;;;4348906;33;20228;-84
2020/12/18 07:43:22;;;;;;;37.78;16.87;;;;;;;;;;4347724;33;20217;-84
2020/12/18 07:45:49;;;;;;;34.13;15.93;;;;;;;;;;4347542;32;20162;-84
2020/12/18 07:48:16;;;;;;;29.97;15.77;;;;;;;;;;4348467;33;20167;-84
2020/12/18 07:50:58;;;;;;;25.60;13.45;;;;;;;;;;4347613;33;20236;-83
2020/12/18 07:53:23;;;;;;;32.03;14.93;;;;;;;;;;4347777;33;20171;-83
2020/12/18 07:56:01;;;;;;;23.63;13.47;;;;;;;;;;4347556;33;20198;-83
2020/12/18 07:58:26;;;;;;;21.12;13.48;;;;;;;;;;4347421;32;20592;-85
2020/12/18 08:01:05;;;;;;;24.03;12.40;;;;;;;;;;4347467;33;20163;-85
2020/12/18 08:03:36;;;;;;;18.42;11.23;;;;;;;;;;4361918;32;20151;-85
2020/12/18 08:06:04;;;;;;;23.10;11.90;;;;;;;;;;4347820;33;20163;-84
2020/12/18 08:08:33;;;;;;;21.93;13.03;;;;;;;;;;4349510;33;20159;-84
2020/12/18 08:11:02;;;;;;;19.70;11.87;;;;;;;;;;4350324;33;20251;-84
2020/12/18 08:13:31;;;;;;;20.00;11.23;;;;;;;;;;4349344;33;20171;-83
2020/12/18 08:16:26;;;;;;;19.43;10.20;;;;;;;;;;4361509;32;20147;-83
2020/12/18 08:19:00;;;;;;;19.70;10.35;;;;;;;;;;4334929;33;20162;-84
2020/12/18 08:21:34;;;;;;;19.30;10.70;;;;;;;;;;4347570;33;20599;-83
2020/12/18 08:24:14;;;;;;;16.87;9.85;;;;;;;;;;4357143;33;20302;-84
2020/12/18 08:26:48;;;;;;;18.40;10.32;;;;;;;;;;4349137;33;20217;-84
2020/12/18 08:29:21;;;;;;;18.30;9.00;;;;;;;;;;4347922;33;20189;-83
2020/12/18 08:31:47;;;;;;;17.55;9.55;;;;;;;;;;4347431;33;20174;-83
2020/12/18 08:34:15;;;;;;;17.10;9.13;;;;;;;;;;4346944;33;20167;-82
2020/12/18 08:36:46;;;;;;;20.70;9.93;;;;;;;;;;4347127;33;20167;-83
2020/12/18 08:39:12;;;;;;;15.30;9.25;;;;;;;;;;4360369;32;20134;-84
2020/12/18 08:41:41;;;;;;;18.15;9.43;;;;;;;;;;4360670;32;20165;-83
2020/12/18 08:44:10;;;;;;;17.50;9.30;;;;;;;;;;4347074;33;20167;-84
2020/12/18 08:46:37;;;;;;;16.10;8.75;;;;;;;;;;4346711;33;20193;-82
2020/12/18 08:49:24;;;;;;;15.18;8.77;;;;;;;;;;4347102;33;20510;-83
2020/12/18 08:51:51;;;;;;;18.60;7.97;;;;;;;;;;4346613;33;20178;-83
2020/12/18 08:54:20;;;;;;;13.15;7.80;;;;;;;;;;4346458;33;20194;-83
2020/12/18 08:56:45;;;;;;;14.30;7.22;;;;;;;;;;4346486;33;20235;-83
2020/12/18 08:59:14;;;;;;;13.75;8.18;;;;;;;;;;4345261;33;20159;-83
2020/12/18 09:01:57;;;;;;;13.38;7.47;;;;;;;;;;4346570;33;20179;-84
2020/12/18 09:04:30;;;;;;;14.27;7.22;;;;;;;;;;4360398;32;20146;-84
2020/12/18 09:06:56;;;;;;;16.02;8.52;;;;;;;;;;4360845;32;20166;-84
2020/12/18 09:09:24;;;;;;;17.58;8.07;;;;;;;;;;4347589;33;20201;-83
2020/12/18 09:12:04;;;;;;;14.97;8.50;;;;;;;;;;4348178;33;20264;-84
2020/12/18 09:14:35;;;;;;;15.23;8.20;;;;;;;;;;4343508;33;20198;-83
2020/12/18 09:17:27;;;;;;;14.67;8.87;;;;;;;;;;4348412;33;20189;-84
2020/12/18 09:19:53;;;;;;;16.40;8.23;;;;;;;;;;4348138;33;20158;-82
2020/12/18 09:22:18;;;;;;;15.18;8.25;;;;;;;;;;4346929;33;20265;-84
2020/12/18 09:25:02;;;;;;;17.50;9.50;;;;;;;;;;4346344;33;20163;-83
2020/12/18 09:27:37;;;;;;;17.10;9.25;;;;;;;;;;4346586;33;20212;-83
2020/12/18 09:30:06;;;;;;;16.35;9.95;;;;;;;;;;4346325;33;20591;-83
2020/12/18 09:32:31;;;;;;;17.55;9.85;;;;;;;;;;4346783;33;20226;-83
2020/12/18 09:34:56;;;;;;;15.75;9.95;;;;;;;;;;4346152;33;20456;-83
2020/12/18 09:37:24;;;;;;;18.17;10.07;;;;;;;;;;4346322;33;20178;-83
2020/12/18 09:39:50;;;;;;;17.60;9.27;;;;;;;;;;4347149;33;20218;-82
2020/12/18 09:42:15;;;;;;;16.87;9.52;;;;;;;;;;4347326;33;20273;-83
2020/12/18 09:44:40;;;;;;;14.52;8.57;;;;;;;;;;4346668;33;20230;-83
2020/12/18 09:47:13;;;;;;;14.38;8.50;;;;;;;;;;4346565;33;20163;-83
2020/12/18 09:49:41;;;;;;;17.67;9.47;;;;;;;;;;4346866;33;20340;-83
2020/12/18 09:52:09;;;;;;;19.05;9.35;;;;;;;;;;4359852;33;20167;-84
2020/12/18 09:54:34;;;;;;;14.60;8.73;;;;;;;;;;4351258;33;20159;-84
2020/12/18 09:56:59;;;;;;;16.62;9.75;;;;;;;;;;4349035;33;20189;-84
2020/12/18 09:59:45;;;;;;;17.10;8.55;;;;;;;;;;4346381;33;20232;-84
2020/12/18 10:02:15;;;;;;;15.07;8.45;;;;;;;;;;4346565;33;20166;-84
2020/12/18 10:04:41;;;;;;;15.07;8.45;;;;;;;;;;4360697;33;20158;-83
2020/12/18 10:07:06;;;;;;;15.95;8.20;;;;;;;;;;4347046;33;20213;-84
2020/12/18 10:09:34;;;;;;;14.77;7.90;;;;;;;;;;4346218;33;20162;-84
2020/12/18 10:12:00;;;;;;;13.38;7.87;;;;;;;;;;4359502;33;20167;-83
2020/12/18 10:14:25;;;;;;;16.90;7.53;;;;;;;;;;4346035;33;20171;-83
2020/12/18 10:16:53;;;;;;;14.90;7.20;;;;;;;;;;4345964;33;20170;-84
2020/12/18 10:19:19;;;;;;;11.82;6.87;;;;;;;;;;4346195;33;20259;-84
2020/12/18 10:21:44;;;;;;;17.50;7.32;;;;;;;;;;4345970;33;20167;-84
2020/12/18 10:24:10;;;;;;;12.43;6.78;;;;;;;;;;4348803;33;20163;-83
2020/12/18 10:26:38;;;;;;;11.95;6.18;;;;;;;;;;4348711;33;20226;-83
2020/12/18 10:29:03;;;;;;;12.40;5.95;;;;;;;;;;4348821;33;20217;-84
2020/12/18 10:31:31;;;;;;;13.25;6.15;;;;;;;;;;4348984;33;20194;-84
2020/12/18 10:33:57;;;;;;;16.80;6.37;;;;;;;;;;4348921;33;20185;-84
2020/12/18 10:36:30;;;;;;;10.70;5.80;;;;;;;;;;4349392;33;20166;-82
2020/12/18 10:38:56;;;;;;;10.05;5.47;;;;;;;;;;4349402;33;20193;-83
2020/12/18 10:41:21;;;;;;;9.98;5.40;;;;;;;;;;4348724;33;20222;-83
2020/12/18 10:43:46;;;;;;;12.77;5.40;;;;;;;;;;4348833;33;20270;-82
2020/12/18 10:46:12;;;;;;;14.32;5.00;;;;;;;;;;4361485;33;20245;-82
2020/12/18 10:48:43;;;;;;;10.77;5.65;;;;;;;;;;4362736;32;20575;-83
2020/12/18 10:51:14;;;;;;;9.10;4.60;;;;;;;;;;4348811;33;20179;-84
2020/12/18 10:53:39;;;;;;;7.30;4.35;;;;;;;;;;4348804;33;20194;-84
2020/12/18 10:56:07;;;;;;;10.93;4.35;;;;;;;;;;4348635;33;20213;-83
2020/12/18 10:58:32;;;;;;;11.40;4.47;;;;;;;;;;4348003;33;20155;-83
2020/12/18 11:00:58;;;;;;;11.52;5.22;;;;;;;;;;4348710;33;20274;-83
2020/12/18 11:03:23;;;;;;;9.00;4.00;;;;;;;;;;4348648;33;20497;-83
2020/12/18 11:05:48;;;;;;;8.48;3.75;;;;;;;;;;4348223;33;20551;-83
2020/12/18 11:08:16;;;;;;;13.20;4.20;;;;;;;;;;4348515;33;20667;-83
2020/12/18 11:10:41;;;;;;;8.90;3.60;;;;;;;;;;4348137;33;20167;-83
2020/12/18 11:13:06;;;;;;;9.77;3.90;;;;;;;;;;4348105;33;20237;-83
2020/12/18 11:15:37;;;;;;;7.32;3.05;;;;;;;;;;4348155;33;20158;-83
2020/12/18 11:18:05;;;;;;;9.68;3.15;;;;;;;;;;4348554;33;20189;-83
2020/12/18 11:20:36;;;;;;;6.65;2.97;;;;;;;;;;4361844;32;20258;-82
2020/12/18 11:23:01;;;;;;;9.75;3.45;;;;;;;;;;4348418;33;20638;-83
2020/12/18 11:25:27;;;;;;;8.50;3.15;;;;;;;;;;4347932;33;20159;-83
2020/12/18 11:27:52;;;;;;;9.82;3.03;;;;;;;;;;4347773;33;20186;-82
2020/12/18 11:30:17;;;;;;;10.63;3.22;;;;;;;;;;4347933;33;20489;-82
2020/12/18 11:32:43;;;;;;;7.90;3.10;;;;;;;;;;4348171;33;20163;-83
2020/12/18 11:35:11;;;;;;;6.62;2.58;;;;;;;;;;4346663;33;20198;-83
2020/12/18 11:37:36;;;;;;;7.40;2.53;;;;;;;;;;4347762;33;20658;-84
2020/12/18 11:40:01;;;;;;;6.62;3.12;;;;;;;;;;4360218;32;20226;-83
2020/12/18 11:42:26;;;;;;;6.45;2.85;;;;;;;;;;4360224;32;20175;-83
2020/12/18 11:44:52;;;;;;;10.32;2.80;;;;;;;;;;4348628;33;20205;-83
2020/12/18 11:47:26;;;;;;;8.88;3.22;;;;;;;;;;4348071;33;20500;-83
2020/12/18 11:50:02;;;;;;;6.57;2.37;;;;;;;;;;4361472;32;20565;-83
2020/12/18 11:52:27;;;;;;;6.80;2.62;;;;;;;;;;4347321;33;20499;-83
2020/12/18 11:54:52;;;;;;;7.12;2.58;;;;;;;;;;4347777;33;20193;-83
2020/12/18 11:57:23;;;;;;;8.23;2.30;;;;;;;;;;4347574;33;20677;-83
2020/12/18 11:59:49;;;;;;;8.27;2.58;;;;;;;;;;4347834;33;20230;-83
2020/12/18 12:02:24;;;;;;;6.62;2.20;;;;;;;;;;4347468;33;20190;-83
2020/12/18 12:05:00;;;;;;;7.35;2.37;;;;;;;;;;4360369;32;20257;-83
2020/12/18 12:07:25;;;;;;;6.20;2.37;;;;;;;;;;4347880;33;20577;-83
2020/12/18 12:09:56;;;;;;;6.62;2.42;;;;;;;;;;4347654;33;20242;-83
2020/12/18 12:12:21;;;;;;;8.05;3.03;;;;;;;;;;4347466;33;20635;-83
2020/12/18 12:14:49;;;;;;;11.55;4.53;;;;;;;;;;4347390;33;20163;-83
2020/12/18 12:17:20;;;;;;;5.95;2.65;;;;;;;;;;4347692;33;20222;-84
2020/12/18 12:19:46;;;;;;;9.13;2.10;;;;;;;;;;4348402;33;20185;-83
2020/12/18 12:22:11;;;;;;;7.97;2.50;;;;;;;;;;4348455;33;20162;-83
2020/12/18 12:24:42;;;;;;;6.95;1.90;;;;;;;;;;4347346;33;20600;-83
2020/12/18 12:27:07;;;;;;;7.07;2.08;;;;;;;;;;4347390;33;20158;-84
2020/12/18 12:29:32;;;;;;;8.20;2.95;;;;;;;;;;4347563;33;20198;-84
2020/12/18 12:31:58;;;;;;;5.55;2.47;;;;;;;;;;4347021;33;20456;-83
2020/12/18 12:34:25;;;;;;;5.50;2.20;;;;;;;;;;4347252;33;20234;-84
2020/12/18 12:36:54;;;;;;;9.70;2.40;;;;;;;;;;4347190;33;20249;-84
2020/12/18 12:39:19;;;;;;;8.55;2.60;;;;;;;;;;4347036;33;20278;-82
2020/12/18 12:41:45;;;;;;;6.60;2.40;;;;;;;;;;4360143;32;20159;-84
2020/12/18 12:44:10;;;;;;;12.90;2.40;;;;;;;;;;4346993;33;20212;-84
2020/12/18 12:46:39;;;;;;;8.90;2.22;;;;;;;;;;4347090;33;20158;-85
2020/12/18 12:49:10;;;;;;;6.45;2.30;;;;;;;;;;4346782;33;20607;-85
2020/12/18 12:51:38;;;;;;;6.65;2.12;;;;;;;;;;4347048;33;20513;-85
2020/12/18 12:54:03;;;;;;;4.60;2.25;;;;;;;;;;4346764;33;20182;-84
2020/12/18 12:56:29;;;;;;;8.18;2.85;;;;;;;;;;4346709;33;20209;-84
2020/12/18 12:58:54;;;;;;;6.07;2.10;;;;;;;;;;4358959;33;20175;-85
2020/12/18 13:01:25;;;;;;;6.22;1.95;;;;;;;;;;4346854;33;20163;-84
2020/12/18 13:03:50;;;;;;;5.43;2.17;;;;;;;;;;4360294;33;20151;-84
2020/12/18 13:06:22;;;;;;;6.72;1.95;;;;;;;;;;4346588;33;20204;-84
2020/12/18 13:08:47;;;;;;;4.95;2.00;;;;;;;;;;4346942;33;20174;-84
2020/12/18 13:11:12;;;;;;;5.47;2.10;;;;;;;;;;4360206;32;20139;-84
2020/12/18 13:13:38;;;;;;;5.28;2.17;;;;;;;;;;4346656;33;20616;-85
2020/12/18 13:16:06;;;;;;;6.20;2.17;;;;;;;;;;4346500;33;20186;-84
2020/12/18 13:18:31;;;;;;;5.80;1.77;;;;;;;;;;4346764;33;20613;-84
2020/12/18 13:20:56;;;;;;;7.18;2.28;;;;;;;;;;4347325;33;20167;-84
2020/12/18 13:23:22;;;;;;;4.50;2.08;;;;;;;;;;4347766;33;20174;-85
2020/12/18 13:25:47;;;;;;;5.32;2.03;;;;;;;;;;4346594;33;20642;-84
2020/12/18 13:28:12;;;;;;;15.77;3.22;;;;;;;;;;4346909;33;20170;-84
2020/12/18 13:30:39;;;;;;;5.82;2.40;;;;;;;;;;4346635;33;20454;-84
2020/12/18 13:33:04;;;;;;;6.28;2.22;;;;;;;;;;4347448;33;20166;-83
2020/12/18 13:35:33;;;;;;;6.47;2.17;;;;;;;;;;4359877;33;20194;-84
2020/12/18 13:37:58;;;;;;;8.68;2.30;;;;;;;;;;4346850;33;20226;-83
2020/12/18 13:40:23;;;;;;;7.68;2.47;;;;;;;;;;4359232;33;20190;-85
2020/12/18 13:42:48;;;;;;;4.95;2.20;;;;;;;;;;4347395;33;20198;-85
2020/12/18 13:45:19;;;;;;;5.82;1.92;;;;;;;;;;4348353;33;20162;-84
2020/12/18 13:47:47;;;;;;;6.12;1.90;;;;;;;;;;4350431;33;20206;-84
2020/12/18 13:50:17;;;;;;;6.43;2.17;;;;;;;;;;4353303;33;20210;-84
2020/12/18 13:52:43;;;;;;;8.85;2.45;;;;;;;;;;4351273;33;20174;-84
2020/12/18 13:55:12;;;;;;;4.15;1.90;;;;;;;;;;4350260;33;20186;-84
2020/12/18 13:57:38;;;;;;;5.87;1.92;;;;;;;;;;4347563;33;20167;-84
2020/12/18 14:00:04;;;;;;;4.22;1.80;;;;;;;;;;4350019;33;20254;-84
2020/12/18 14:02:35;;;;;;;6.68;2.10;;;;;;;;;;4343943;33;20218;-85
2020/12/18 14:05:08;;;;;;;9.15;2.60;;;;;;;;;;4362098;33;20533;-85
2020/12/18 14:07:33;;;;;;;6.60;1.90;;;;;;;;;;4349776;33;20153;-84
2020/12/18 14:10:11;;;;;;;8.70;2.00;;;;;;;;;;4349536;33;20264;-84
2020/12/18 14:12:40;;;;;;;3.90;1.85;;;;;;;;;;4349527;33;20198;-85
2020/12/18 14:15:22;;;;;;;2.62;1.60;;;;;;;;;;4349111;33;20167;-85
2020/12/18 14:17:51;;;;;;;7.97;2.50;;;;;;;;;;4352421;33;20175;-85
2020/12/18 14:20:22;;;;;;;5.80;2.00;;;;;;;;;;4346665;33;20167;-84
2020/12/18 14:22:53;;;;;;;7.40;1.98;;;;;;;;;;4346983;33;20185;-84
2020/12/18 14:25:31;;;;;;;6.43;2.90;;;;;;;;;;4346507;33;20151;-84
2020/12/18 14:28:02;;;;;;;8.27;2.58;;;;;;;;;;4345499;33;20572;-85
2020/12/18 14:30:34;;;;;;;7.18;2.87;;;;;;;;;;4347111;33;20164;-84
2020/12/18 14:33:01;;;;;;;5.43;2.58;;;;;;;;;;4346587;33;20198;-83
2020/12/18 14:35:26;;;;;;;5.50;2.40;;;;;;;;;;4346911;33;20493;-83